createdAt,value
2023-04-28T00:00:55.165Z,100228.66
2023-04-28T00:03:22.946Z,100221.31
2023-04-28T00:05:50.770Z,100221.91
2023-04-28T00:08:18.594Z,100223.59
2023-04-28T00:10:46.398Z,100214.69
2023-04-28T00:13:14.190Z,100214.44
2023-04-28T00:15:41.909Z,100200.88
2023-04-28T00:18:11.283Z,100191.91
2023-04-28T00:20:38.935Z,100195.88
2023-04-28T00:23:06.594Z,100208.06
2023-04-28T00:25:34.498Z,100191.59
2023-04-28T00:28:02.860Z,100181.03
2023-04-28T00:30:30.884Z,100174.19
2023-04-28T00:32:58.906Z,100171.50
2023-04-28T00:35:28.398Z,100176.25
2023-04-28T00:37:57.355Z,100172.44
2023-04-28T00:40:34.122Z,100166.84
2023-04-28T00:43:02.095Z,100164.78
2023-04-28T00:45:30.103Z,100148.53
2023-04-28T00:47:58.631Z,100148.75
2023-04-28T00:50:28.907Z,100139.56
2023-04-28T00:52:59.084Z,100138.31
2023-04-28T00:55:29.073Z,100134.56
2023-04-28T00:57:59.246Z,100133.19
2023-04-28T01:00:27.804Z,100135.81
2023-04-28T01:02:56.940Z,100128.63
2023-04-28T01:05:28.296Z,100130.97
2023-04-28T01:07:57.910Z,100134.59
2023-04-28T01:10:25.913Z,100135.88
2023-04-28T01:12:54.432Z,100127.22
2023-04-28T01:15:24.731Z,100118.66
2023-04-28T01:17:56.583Z,100118.72
2023-04-28T01:20:24.456Z,100123.31
2023-04-28T01:22:54.082Z,100124.31
2023-04-28T01:25:23.579Z,100121.72
2023-04-28T01:27:52.995Z,100122.47
2023-04-28T01:30:21.075Z,100128.16
2023-04-28T01:32:49.210Z,100124.56
2023-04-28T01:35:17.414Z,100118.50
2023-04-28T01:37:45.898Z,100119.41
2023-04-28T01:40:14.385Z,100122.84
2023-04-28T01:42:44.073Z,100118.19
2023-04-28T01:45:13.115Z,100126.84
2023-04-28T01:47:40.915Z,100130.81
2023-04-28T01:50:09.163Z,100134.56
2023-04-28T01:52:37.962Z,100128.75
2023-04-28T01:55:07.060Z,100120.56
2023-04-28T01:57:36.058Z,100116.81
2023-04-28T02:00:07.594Z,100104.47
2023-04-28T02:02:38.781Z,100097.50
2023-04-28T02:05:07.246Z,100103.47
2023-04-28T02:07:35.298Z,100101.56
2023-04-28T02:10:04.818Z,100104.31
2023-04-28T02:12:32.748Z,100113.19
2023-04-28T02:15:01.671Z,100114.03
2023-04-28T02:17:32.781Z,100123.56
2023-04-28T02:20:00.649Z,100120.94
2023-04-28T02:22:28.939Z,100126.47
2023-04-28T02:24:56.923Z,100120.56
2023-04-28T02:27:26.257Z,100115.19
2023-04-28T02:29:54.272Z,100118.72
2023-04-28T02:32:23.493Z,100107.44
2023-04-28T02:34:56.190Z,100115.81
2023-04-28T02:37:25.460Z,100108.63
2023-04-28T02:39:53.317Z,100109.31
2023-04-28T02:42:22.325Z,100109.38
2023-04-28T02:44:50.911Z,100106.59
2023-04-28T02:47:18.783Z,100105.78
2023-04-28T02:49:46.623Z,100103.78
2023-04-28T02:52:16.307Z,100108.63
2023-04-28T02:54:44.073Z,100097.50
2023-04-28T02:57:12.791Z,100084.34
2023-04-28T02:59:40.469Z,100089.16
2023-04-28T03:02:09.126Z,100080.34
2023-04-28T03:04:37.248Z,100076.75
2023-04-28T03:07:05.415Z,100087.25
2023-04-28T03:09:34.794Z,100076.53
2023-04-28T03:12:03.408Z,100065.19
2023-04-28T03:14:33.176Z,100052.09
2023-04-28T03:17:00.811Z,100062.50
2023-04-28T03:19:29.042Z,100052.63
2023-04-28T03:21:57.110Z,100043.81
2023-04-28T03:24:24.944Z,100048.03
2023-04-28T03:26:54.701Z,100031.81
2023-04-28T03:29:24.363Z,100033.69
2023-04-28T03:31:52.913Z,100038.31
2023-04-28T03:34:21.011Z,100045.81
2023-04-28T03:36:49.047Z,100039.84
2023-04-28T03:39:25.268Z,100046.72
2023-04-28T03:41:54.451Z,100049.03
2023-04-28T03:44:40.565Z,100049.19
2023-04-28T03:47:09.087Z,100044.66
2023-04-28T03:49:37.717Z,100035.09
2023-04-28T03:52:05.547Z,100036.31
2023-04-28T03:54:33.668Z,100032.41
2023-04-28T03:57:04.546Z,100028.72
2023-04-28T03:59:34.498Z,100034.88
2023-04-28T04:02:02.284Z,100031.31
2023-04-28T04:04:33.815Z,100026.78
2023-04-28T04:07:02.164Z,100022.44
2023-04-28T04:09:30.989Z,100016.69
2023-04-28T04:11:58.786Z,100021.13
2023-04-28T04:14:28.050Z,100021.75
2023-04-28T04:16:56.252Z,100019.06
2023-04-28T04:19:26.797Z,100014.63
2023-04-28T04:21:55.699Z,100014.38
2023-04-28T04:24:24.174Z,100023.94
2023-04-28T04:26:52.141Z,100014.38
2023-04-28T04:29:42.127Z,100009.41
2023-04-28T04:32:14.124Z,100006.06
2023-04-28T04:34:43.249Z,100012.84
2023-04-28T04:37:12.630Z,100005.19
2023-04-28T04:39:49.387Z,100012.16
2023-04-28T04:45:02.890Z,100004.47
2023-04-28T04:47:32.369Z,100000.41
2023-04-28T04:50:00.088Z,100000.56
2023-04-28T04:52:27.889Z,100001.63
2023-04-28T04:54:56.395Z,99998.34
2023-04-28T04:57:27.184Z,99999.31
2023-04-28T05:00:09.747Z,100000.28
2023-04-28T05:02:38.640Z,99990.75
2023-04-28T05:05:20.722Z,99999.41
2023-04-28T05:08:02.364Z,99995.06
2023-04-28T05:10:30.195Z,99986.09
2023-04-28T05:12:58.036Z,99992.06
2023-04-28T05:15:27.474Z,99998.13
2023-04-28T05:18:22.565Z,100003.16
2023-04-28T05:20:51.011Z,99998.88
2023-04-28T05:23:20.357Z,100006.53
2023-04-28T05:25:48.821Z,100010.13
2023-04-28T05:28:16.831Z,100000.78
2023-04-28T05:30:47.596Z,99999.31
2023-04-28T05:33:16.761Z,99992.75
2023-04-28T05:35:45.077Z,99979.38
2023-04-28T05:38:13.463Z,99990.91
2023-04-28T05:40:43.448Z,99991.75
2023-04-28T05:43:13.407Z,99988.25
2023-04-28T05:45:41.846Z,99996.97
2023-04-28T05:48:14.108Z,99996.28
2023-04-28T05:50:42.294Z,100002.22
2023-04-28T05:53:11.426Z,100000.78
2023-04-28T05:55:39.561Z,100000.63
2023-04-28T05:58:08.112Z,100010.47
2023-04-28T06:00:36.323Z,100009.66
2023-04-28T06:03:05.472Z,100009.50
2023-04-28T06:05:35.453Z,100006.34
2023-04-28T06:08:03.595Z,100004.75
2023-04-28T06:10:32.371Z,100000.44
2023-04-28T06:13:00.481Z,100000.66
2023-04-28T06:15:28.710Z,99995.63
2023-04-28T06:17:56.450Z,100008.41
2023-04-28T06:20:25.730Z,100006.13
2023-04-28T06:22:57.509Z,99998.69
2023-04-28T06:25:25.706Z,99999.75
2023-04-28T06:27:54.446Z,100004.81
2023-04-28T06:30:27.378Z,100011.91
2023-04-28T06:32:57.790Z,100004.03
2023-04-28T06:35:37.562Z,100000.66
2023-04-28T06:38:07.992Z,100009.94
2023-04-28T06:40:35.792Z,100013.59
2023-04-28T06:43:05.741Z,100018.53
2023-04-28T06:45:44.787Z,100012.69
2023-04-28T06:48:12.807Z,100008.19
2023-04-28T06:50:42.338Z,100011.63
2023-04-28T06:53:13.435Z,100004.53
2023-04-28T06:55:41.495Z,100000.84
2023-04-28T06:58:09.734Z,100003.63
2023-04-28T07:00:37.787Z,99996.41
2023-04-28T07:03:06.016Z,99997.19
2023-04-28T07:05:34.613Z,99985.31
2023-04-28T07:08:02.373Z,99984.13
2023-04-28T07:10:31.545Z,99974.53
2023-04-28T07:13:00.234Z,99976.00
2023-04-28T07:15:28.085Z,99972.38
2023-04-28T07:17:56.209Z,99968.63
2023-04-28T07:20:24.214Z,99967.63
2023-04-28T07:22:51.889Z,99967.56
2023-04-28T07:25:19.754Z,99971.88
2023-04-28T07:27:50.139Z,99973.06
2023-04-28T07:30:27.207Z,99977.38
2023-04-28T07:32:55.551Z,99975.59
2023-04-28T07:35:24.181Z,99978.50
2023-04-28T07:37:52.104Z,99963.72
2023-04-28T07:40:20.293Z,99960.47
2023-04-28T07:42:49.549Z,99960.94
2023-04-28T07:45:17.340Z,99958.53
2023-04-28T07:47:45.264Z,99960.34
2023-04-28T07:50:13.189Z,99956.47
2023-04-28T07:52:40.958Z,99951.94
2023-04-28T07:55:09.108Z,99941.69
2023-04-28T07:57:36.944Z,99949.88
2023-04-28T08:00:07.720Z,99953.22
2023-04-28T08:02:41.189Z,99956.91
2023-04-28T08:05:10.810Z,99945.66
2023-04-28T08:07:38.895Z,99947.84
2023-04-28T08:10:07.810Z,99964.34
2023-04-28T08:12:35.572Z,99958.34
2023-04-28T08:15:03.970Z,99959.50
2023-04-28T08:17:33.205Z,99960.59
2023-04-28T08:20:01.330Z,99960.91
2023-04-28T08:22:30.067Z,99965.22
2023-04-28T08:24:57.786Z,99961.44
2023-04-28T08:27:26.123Z,99966.34
2023-04-28T08:29:53.809Z,99971.75
2023-04-28T08:32:21.537Z,99967.97
2023-04-28T08:34:50.514Z,99964.16
2023-04-28T08:37:18.555Z,99976.50
2023-04-28T08:39:46.372Z,99969.25
2023-04-28T08:42:15.032Z,99967.56
2023-04-28T08:44:42.840Z,99969.91
2023-04-28T08:47:14.436Z,99963.28
2023-04-28T08:49:43.351Z,99956.84
2023-04-28T08:52:17.808Z,99964.97
2023-04-28T08:54:46.970Z,99970.22
2023-04-28T08:57:15.001Z,99975.06
2023-04-28T08:59:42.843Z,99964.50
2023-04-28T09:02:11.318Z,99979.66
2023-04-28T09:04:39.620Z,99971.59
2023-04-28T09:07:13.713Z,99975.06
2023-04-28T09:09:42.197Z,99981.41
2023-04-28T09:12:10.085Z,99981.13
2023-04-28T09:14:39.507Z,99991.09
2023-04-28T09:17:13.244Z,99991.75
2023-04-28T09:19:42.922Z,99982.25
2023-04-28T09:22:25.445Z,99974.78
2023-04-28T09:24:55.617Z,99967.59
2023-04-28T09:27:29.103Z,99970.38
2023-04-28T09:29:57.427Z,99975.88
2023-04-28T09:32:27.680Z,99972.34
2023-04-28T09:34:57.194Z,99981.69
2023-04-28T09:37:27.239Z,99981.13
2023-04-28T09:39:57.280Z,99981.03
2023-04-28T09:42:36.322Z,99976.81
2023-04-28T09:45:05.918Z,99979.25
2023-04-28T09:47:35.603Z,99981.69
2023-04-28T09:50:05.075Z,99983.16
2023-04-28T09:52:35.023Z,99985.69
2023-04-28T09:55:06.952Z,99984.66
2023-04-28T09:57:37.509Z,99982.41
2023-04-28T10:00:07.281Z,99978.22
2023-04-28T10:05:10.918Z,99968.78
2023-04-28T10:07:40.172Z,99976.81
2023-04-28T10:10:10.249Z,99964.81
2023-04-28T10:12:39.202Z,99976.56
2023-04-28T10:15:09.550Z,99975.81
2023-04-28T10:17:38.355Z,99967.22
2023-04-28T10:20:08.558Z,99972.81
2023-04-28T10:22:52.594Z,99968.91
2023-04-28T10:25:29.954Z,99969.56
2023-04-28T10:27:59.561Z,99968.06
2023-04-28T10:30:29.873Z,99970.88
2023-04-28T10:33:26.915Z,99971.91
2023-04-28T10:35:55.526Z,99966.66
2023-04-28T10:41:34.895Z,99958.63
2023-04-28T10:44:02.905Z,99949.44
2023-04-28T10:47:03.308Z,99947.06
2023-04-28T10:50:04.655Z,99947.50
2023-04-28T10:52:51.507Z,99961.72
2023-04-28T10:55:40.025Z,99960.16
2023-04-28T10:58:36.184Z,99954.78
2023-04-28T11:01:26.428Z,99956.22
2023-04-28T11:04:00.745Z,99951.03
2023-04-28T11:06:31.907Z,99948.72
2023-04-28T11:09:02.526Z,99955.72
2023-04-28T11:11:32.599Z,99957.69
2023-04-28T11:14:35.130Z,99958.81
2023-04-28T11:17:04.545Z,99941.97
2023-04-28T11:19:34.095Z,99938.50
2023-04-28T11:22:03.629Z,99933.34
2023-04-28T11:24:32.289Z,99937.66
2023-04-28T11:27:01.540Z,99936.72
2023-04-28T11:29:36.061Z,99938.22
2023-04-28T11:32:05.211Z,99937.31
2023-04-28T11:34:33.021Z,99942.41
2023-04-28T11:37:00.967Z,99946.44
2023-04-28T11:39:30.970Z,99948.94
2023-04-28T11:42:00.142Z,99945.09
2023-04-28T11:44:29.384Z,99929.47
2023-04-28T11:47:02.151Z,99933.91
2023-04-28T11:49:36.553Z,99932.63
2023-04-28T11:52:06.833Z,99924.91
2023-04-28T11:54:35.223Z,99939.28
2023-04-28T11:57:04.100Z,99942.97
2023-04-28T11:59:34.010Z,99942.91
2023-04-28T12:02:07.442Z,99939.75
2023-04-28T12:04:37.671Z,99931.78
2023-04-28T12:07:08.052Z,99937.88
2023-04-28T12:09:36.138Z,99936.00
2023-04-28T12:12:05.960Z,99940.78
2023-04-28T12:14:35.620Z,99957.00
2023-04-28T12:17:05.428Z,99953.53
2023-04-28T12:19:46.137Z,99944.38
2023-04-28T12:22:17.378Z,99931.69
2023-04-28T12:24:46.694Z,99930.59
2023-04-28T12:27:21.698Z,99927.16
2023-04-28T12:29:49.887Z,99938.34
2023-04-28T12:32:20.250Z,99939.63
2023-04-28T12:34:50.870Z,99948.50
2023-04-28T12:37:18.755Z,99953.94
2023-04-28T12:39:46.920Z,99950.06
2023-04-28T12:42:15.013Z,99946.59
2023-04-28T12:44:42.851Z,99930.97
2023-04-28T12:47:12.162Z,99924.22
2023-04-28T12:55:46.937Z,99935.22
2023-04-28T12:58:15.078Z,99941.09
2023-04-28T13:00:43.213Z,99943.06
2023-04-28T13:03:11.139Z,99939.59
2023-04-28T13:05:39.281Z,99937.50
2023-04-28T13:08:07.005Z,99939.81
2023-04-28T13:10:35.317Z,99927.03
2023-04-28T13:13:05.504Z,99925.56
2023-04-28T13:15:33.305Z,99915.28
2023-04-28T13:18:01.396Z,99913.31
2023-04-28T13:20:29.705Z,99912.16
2023-04-28T13:27:04.606Z,99911.63
2023-04-28T13:36:14.880Z,99897.38
2023-04-28T13:38:45.426Z,99897.06
2023-04-28T13:41:13.112Z,99900.41
2023-04-28T13:43:41.198Z,99907.97
2023-04-28T13:46:09.201Z,99899.63
2023-04-28T13:48:37.455Z,99908.94
2023-04-28T13:51:06.046Z,99897.69
2023-04-28T13:53:36.578Z,99896.97
2023-04-28T13:56:05.286Z,99884.59
2023-04-28T13:58:33.215Z,99885.66
2023-04-28T14:01:01.217Z,99876.66
2023-04-28T14:03:29.041Z,99856.94
2023-04-28T14:05:59.053Z,99847.84
2023-04-28T14:08:28.044Z,99837.97
2023-04-28T14:10:57.288Z,99834.13
2023-04-28T14:13:25.427Z,99845.97
2023-04-28T14:15:59.257Z,99852.22
2023-04-28T14:18:27.654Z,99868.78
2023-04-28T14:20:56.098Z,99867.94
2023-04-28T14:23:24.066Z,99858.94
2023-04-28T14:25:56.174Z,99852.75
2023-04-28T14:28:25.488Z,99852.53
2023-04-28T14:30:54.501Z,99831.50
2023-04-28T14:33:22.978Z,99839.56
2023-04-28T14:35:50.812Z,99837.88
2023-04-28T14:38:19.095Z,99838.41
2023-04-28T14:40:46.949Z,99821.84
2023-04-28T14:43:14.786Z,99816.13
2023-04-28T14:45:44.720Z,99820.88
2023-04-28T14:48:13.312Z,99811.13
2023-04-28T14:50:41.940Z,99809.69
2023-04-28T14:53:09.886Z,99811.47
2023-04-28T14:55:37.902Z,99803.69
2023-04-28T14:58:05.601Z,99808.84
2023-04-28T15:00:33.372Z,99804.63
2023-04-28T15:03:02.627Z,99805.53
2023-04-28T15:05:30.383Z,99808.59
2023-04-28T15:07:59.719Z,99812.44
2023-04-28T15:10:32.084Z,99812.31
2023-04-28T15:13:00.630Z,99811.75
2023-04-28T15:15:28.596Z,99808.56
2023-04-28T15:18:00.683Z,99808.34
2023-04-28T15:20:30.663Z,99801.66
2023-04-28T15:22:58.924Z,99797.94
2023-04-28T15:25:27.235Z,99788.38
2023-04-28T15:27:55.137Z,99780.94
2023-04-28T15:30:23.500Z,99791.06
2023-04-28T15:32:51.819Z,99786.25
2023-04-28T15:35:19.680Z,99775.78
2023-04-28T15:37:49.198Z,99780.00
2023-04-28T15:40:19.213Z,99790.63
2023-04-28T15:42:51.648Z,99769.34
2023-04-28T15:45:20.750Z,99768.84
2023-04-28T15:47:50.366Z,99775.78
2023-04-28T15:50:19.849Z,99775.41
2023-04-28T15:52:51.126Z,99782.38
2023-04-28T15:55:20.920Z,99777.38
2023-04-28T15:57:49.837Z,99771.22
2023-04-28T16:00:18.782Z,99768.75
2023-04-28T16:02:46.839Z,99769.94
2023-04-28T16:05:14.723Z,99765.03
2023-04-28T16:07:42.635Z,99770.66
2023-04-28T16:10:13.588Z,99768.84
2023-04-28T16:12:41.999Z,99765.75
2023-04-28T16:15:12.260Z,99765.19
2023-04-28T16:17:40.489Z,99760.63
2023-04-28T16:20:10.062Z,99752.13
2023-04-28T16:22:38.607Z,99758.38
2023-04-28T16:25:07.196Z,99751.69
2023-04-28T16:27:37.465Z,99752.88
2023-04-28T16:30:07.481Z,99756.47
2023-04-28T16:32:36.493Z,99761.25
2023-04-28T16:35:06.227Z,99758.13
2023-04-28T16:37:36.300Z,99757.06
2023-04-28T16:40:04.890Z,99758.94
2023-04-28T16:42:32.909Z,99773.81
2023-04-28T16:45:02.077Z,99778.72
2023-04-28T16:47:30.982Z,99784.41
2023-04-28T16:49:58.842Z,99778.69
2023-04-28T16:52:27.459Z,99773.66
2023-04-28T16:54:55.150Z,99787.84
2023-04-28T16:57:23.362Z,99780.09
2023-04-28T16:59:51.887Z,99783.69
2023-04-28T17:02:21.290Z,99795.84
2023-04-28T17:04:49.023Z,99786.22
2023-04-28T17:07:16.652Z,99781.53
2023-04-28T17:09:44.722Z,99793.84
2023-04-28T17:12:12.528Z,99775.94
2023-04-28T17:14:40.209Z,99782.38
2023-04-28T17:17:08.743Z,99769.72
2023-04-28T17:19:38.016Z,99775.06
2023-04-28T17:22:05.708Z,99783.28
2023-04-28T17:24:33.364Z,99773.59
2023-04-28T17:27:01.428Z,99773.59
2023-04-28T17:29:29.242Z,99772.63
2023-04-28T17:31:57.592Z,99769.59
2023-04-28T17:34:25.650Z,99770.06
2023-04-28T17:36:54.957Z,99788.75
2023-04-28T17:39:22.952Z,99793.16
2023-04-28T17:41:50.852Z,99805.94
2023-04-28T17:44:19.589Z,99823.97
2023-04-28T17:46:47.262Z,99834.38
2023-04-28T17:49:14.963Z,99834.13
2023-04-28T17:51:42.980Z,99837.03
2023-04-28T17:54:12.403Z,99837.56
2023-04-28T17:56:40.482Z,99842.72
2023-04-28T17:59:08.899Z,99830.66
2023-04-28T18:01:36.851Z,99845.91
2023-04-28T18:04:04.793Z,99852.63
2023-04-28T18:06:33.116Z,99855.56
2023-04-28T18:09:01.428Z,99831.91
2023-04-28T18:11:31.776Z,99841.53
2023-04-28T18:13:59.574Z,99845.53
2023-04-28T18:16:28.937Z,99833.28
2023-04-28T18:18:57.126Z,99843.00
2023-04-28T18:21:24.793Z,99848.44
2023-04-28T18:23:52.622Z,99841.94
2023-04-28T18:26:22.169Z,99844.69
2023-04-28T18:28:51.793Z,99844.16
2023-04-28T18:31:19.587Z,99838.19
2023-04-28T18:33:47.616Z,99839.00
2023-04-28T18:36:15.544Z,99828.97
2023-04-28T18:38:44.846Z,99827.50
2023-04-28T18:41:14.061Z,99830.53
2023-04-28T18:43:42.820Z,99828.56
2023-04-28T18:46:12.191Z,99827.28
2023-04-28T18:48:40.309Z,99839.31
2023-04-28T18:51:08.183Z,99833.75
2023-04-28T18:53:36.913Z,99841.81
2023-04-28T18:56:04.966Z,99838.66
2023-04-28T18:58:33.234Z,99835.38
2023-04-28T19:01:01.507Z,99840.06
2023-04-28T19:03:31.829Z,99837.78
2023-04-28T19:05:59.926Z,99846.00
2023-04-28T19:08:27.832Z,99846.75
2023-04-28T19:10:58.501Z,99854.69
2023-04-28T19:13:26.674Z,99859.38
2023-04-28T19:15:56.184Z,99861.25
2023-04-28T19:18:23.925Z,99863.03
2023-04-28T19:21:00.842Z,99865.72
2023-04-28T19:23:29.409Z,99873.84
2023-04-28T19:25:58.363Z,99867.78
2023-04-28T19:28:27.059Z,99878.91
2023-04-28T19:30:56.164Z,99869.09
2023-04-28T19:33:27.741Z,99872.06
2023-04-28T19:35:58.362Z,99873.91
2023-04-28T19:38:28.336Z,99873.19
2023-04-28T19:41:01.169Z,99869.09
2023-04-28T19:43:28.998Z,99887.41
2023-04-28T19:45:57.465Z,99888.28
2023-04-28T19:48:26.151Z,99894.69
2023-04-28T19:50:54.202Z,99908.25
2023-04-28T19:53:23.868Z,99920.41
2023-04-28T19:55:51.708Z,99915.09
2023-04-28T19:58:19.690Z,99915.31
2023-04-28T20:00:48.216Z,99929.59
2023-04-28T20:03:17.152Z,99939.22
2023-04-28T20:05:45.263Z,99929.81
2023-04-28T20:08:13.428Z,99936.88
2023-04-28T20:10:42.763Z,99937.09
2023-04-28T20:13:10.776Z,99943.59
2023-04-28T20:15:38.936Z,99948.38
2023-04-28T20:18:07.267Z,99944.34
2023-04-28T20:20:35.108Z,99940.06
2023-04-28T20:23:02.789Z,99942.94
2023-04-28T20:25:30.519Z,99950.31
2023-04-28T20:27:59.996Z,99944.25
2023-04-28T20:30:28.259Z,99954.97
2023-04-28T20:32:55.976Z,99946.88
2023-04-28T20:35:23.958Z,99952.75
2023-04-28T20:37:52.701Z,99946.28
2023-04-28T20:40:20.580Z,99953.34
2023-04-28T20:42:49.502Z,99948.66
2023-04-28T20:45:19.443Z,99946.13
2023-04-28T20:47:47.174Z,99940.91
2023-04-28T20:50:15.585Z,99939.22
2023-04-28T20:52:43.455Z,99947.06
2023-04-28T20:55:12.361Z,99944.16
2023-04-28T20:57:40.566Z,99950.03
2023-04-28T21:00:09.179Z,99956.56
2023-04-28T21:02:38.501Z,99956.97
2023-04-28T21:05:07.083Z,99962.53
2023-04-28T21:07:35.580Z,99962.91
2023-04-28T21:10:03.359Z,99970.38
2023-04-28T21:12:31.147Z,99962.81
2023-04-28T21:14:59.488Z,99965.59
2023-04-28T21:17:27.636Z,99973.00
2023-04-28T21:19:57.414Z,99975.22
2023-04-28T21:22:25.102Z,99978.44
2023-04-28T21:24:54.443Z,99974.97
2023-04-28T21:27:22.257Z,99979.47
2023-04-28T21:29:50.099Z,99975.44
2023-04-28T21:32:18.077Z,99975.63
2023-04-28T21:34:48.273Z,99976.47
2023-04-28T21:37:17.722Z,99980.16
2023-04-28T21:39:46.090Z,99980.75
2023-04-28T21:42:13.912Z,99983.53
2023-04-28T21:44:42.034Z,99980.44
2023-04-28T21:47:09.830Z,99984.72
2023-04-28T21:49:37.564Z,99992.38
2023-04-28T21:52:05.716Z,99988.34
2023-04-28T21:54:35.693Z,99981.19
2023-04-28T21:57:03.503Z,99980.50
2023-04-28T21:59:31.669Z,99982.13
2023-04-28T22:02:01.907Z,99984.72
2023-04-28T22:04:30.812Z,99981.34
2023-04-28T22:06:58.729Z,99987.59
2023-04-28T22:09:27.253Z,99991.03
2023-04-28T22:11:56.282Z,99982.38
2023-04-28T22:14:39.451Z,99997.63
2023-04-28T22:17:09.121Z,99995.69
2023-04-28T22:19:36.805Z,99990.28
2023-04-28T22:22:05.400Z,99993.66
2023-04-28T22:24:33.032Z,99994.94
2023-04-28T22:27:02.414Z,99990.88
2023-04-28T22:29:30.244Z,99999.75
2023-04-28T22:31:58.780Z,100007.91
2023-04-28T22:34:26.585Z,100007.22
2023-04-28T22:36:54.335Z,100009.66
2023-04-28T22:39:24.870Z,100009.34
2023-04-28T22:41:52.839Z,100008.78
2023-04-28T22:44:22.311Z,100006.03
2023-04-28T22:46:51.399Z,100006.53
2023-04-28T22:49:24.873Z,100006.53
2023-04-28T22:51:53.269Z,100009.13
2023-04-28T22:54:22.855Z,100007.38
2023-04-28T22:56:52.752Z,100015.38
2023-04-28T22:59:24.888Z,100015.28
2023-04-28T23:01:54.666Z,100014.44
2023-04-28T23:04:23.670Z,100023.09
2023-04-28T23:06:53.183Z,100015.94
2023-04-28T23:09:21.237Z,100018.41
2023-04-28T23:11:48.848Z,100011.13
2023-04-28T23:14:16.571Z,100009.47
2023-04-28T23:16:45.680Z,100017.13
2023-04-28T23:19:13.482Z,100014.31
2023-04-28T23:21:41.432Z,100010.13
2023-04-28T23:24:10.899Z,100012.81
2023-04-28T23:26:38.798Z,100015.94
2023-04-28T23:29:08.924Z,100019.31
2023-04-28T23:31:39.687Z,100018.47
2023-04-28T23:34:09.380Z,100017.63
2023-04-28T23:36:38.091Z,100018.66
2023-04-28T23:39:06.441Z,100019.75
2023-04-28T23:41:34.399Z,100021.50
2023-04-28T23:44:02.062Z,100024.44
2023-04-28T23:46:30.032Z,100023.63
2023-04-28T23:48:58.358Z,100016.91
2023-04-28T23:51:27.476Z,100018.75
2023-04-28T23:53:55.424Z,100019.91
2023-04-28T23:56:23.780Z,100019.41
2023-04-28T23:58:52.149Z,100020.34
